Etusivu
METAR-TAF:

METAR-TAF

Lentoasemat :

Monbetsu, Japani

Leveyspiiri: 44-15N, Pituuspiiri: 143-32E, korkeus merenpinnasta: 6 m

Tämänhetkinen sää

Tämä raportti tehtiin 5 tuntia ja 17 minuuttia sitten, kello 07.00 UTC
Tuuli 4 kn idästä/kaakosta, vaihdellen idän ja etelän/kaakon välillä
Lämpötila 8°C
Kosteus 49%
Ilmanpaine 1015 hPa
Näkyvyys 10 km tai enemmän
Muutamia pilviä 3000 ft:n korkeudessa
Hajanaisia pilviä 15000 ft:n korkeudessa
Hajonneita pilviä

METAR: RJEB 130700Z 12004KT 080V150 9999 FEW030 SCT150 BKN/// 08/M02 Q1015

Aika: 21:17 (12:17 UTC)


TAF: puuttuu

Säähavainnot ja -ennusteet yli 4000 lentoasemalta (METAR- ja TAF-raportit).

Käytössä olevat sääasemat on merkitty karttaan keltaisilla ja punaisilla pisteillä.

Aseta hiiri pisteen päälle nähdäksesi sääaseman nimen.

Klikkaa sitten nähdäksesi säähavainnot ja -ennusteet.

Kartan vaihtaminen: klikkaa mustalla rastilla varustettuja vihreitä pisteitä, niin voit zoomata sisään; viivalla varustettua vihreää pistettä, niin voit zoomata ulos tai vihreitä nuolia, niin pääset viereisille kartoille.


METAR-TAF: